GLO1016 SBSP-SBRJ
Flight info
| Callsign | GLO1016 |
|---|---|
| Flight time | 0h 38m |
| Altitude | 27000 |
| Route | NIBRU UZ171 KEVUN |
| Aircraft | B738/M-SDE2E3FGHIRWXY/LB1 |
Departure
| Time | 2026-05-05 14:30 |
|---|---|
| Airport | Congonhas–Deputado Freitas Nobre Airport (SBSP) |
Arrival
| Time | 2026-05-05 15:09 |
|---|---|
| Airport | Santos Dumont Airport (SBRJ) |
| Time | Latitude | Longitude | Altitude | Speed | Heading |
|---|---|---|---|---|---|
| 2026-05-05 14:11 | -23.62925 | -46.65773 | 2599 ft | 0 kts | 328° |
| 2026-05-05 14:22 | -23.62937 | -46.65765 | 2599 ft | 3 kts | 328° |
| 2026-05-05 14:22 | -23.62954 | -46.65762 | 2599 ft | 3 kts | 34° |
| 2026-05-05 14:22 | -23.62961 | -46.65768 | 2599 ft | 0 kts | 53° |
| 2026-05-05 14:27 | -23.62951 | -46.65750 | 2599 ft | 6 kts | 60° |
| 2026-05-05 14:27 | -23.62932 | -46.65711 | 2600 ft | 11 kts | 64° |
| 2026-05-05 14:27 | -23.62891 | -46.65626 | 2601 ft | 13 kts | 80° |
| 2026-05-05 14:27 | -23.62949 | -46.65558 | 2602 ft | 13 kts | 146° |
| 2026-05-05 14:28 | -23.63069 | -46.65509 | 2601 ft | 15 kts | 156° |
| 2026-05-05 14:28 | -23.63130 | -46.65470 | 2601 ft | 15 kts | 148° |
| 2026-05-05 14:28 | -23.63222 | -46.65407 | 2601 ft | 17 kts | 148° |
| 2026-05-05 14:28 | -23.63336 | -46.65327 | 2601 ft | 22 kts | 148° |
| 2026-05-05 14:29 | -23.63462 | -46.65240 | 2600 ft | 21 kts | 148° |
| 2026-05-05 14:29 | -23.63471 | -46.65139 | 2597 ft | 15 kts | 30° |
| 2026-05-05 14:29 | -23.63427 | -46.65120 | 2600 ft | 1 kts | 326° |
| 2026-05-05 14:30 | -23.63277 | -46.65224 | 2608 ft | 62 kts | 328° |
| 2026-05-05 14:30 | -23.62692 | -46.65626 | 2606 ft | 134 kts | 327° |
| 2026-05-05 14:30 | -23.61763 | -46.66249 | 2886 ft | 168 kts | 329° |
| 2026-05-05 14:30 | -23.60772 | -46.66961 | 3722 ft | 172 kts | 325° |
| 2026-05-05 14:31 | -23.59631 | -46.67329 | 4560 ft | 183 kts | 6° |
| 2026-05-05 14:31 | -23.58403 | -46.66660 | 4959 ft | 218 kts | 44° |
| 2026-05-05 14:31 | -23.57639 | -46.65182 | 5446 ft | 233 kts | 73° |
| 2026-05-05 14:31 | -23.57674 | -46.63426 | 5366 ft | 233 kts | 114° |
| 2026-05-05 14:32 | -23.58662 | -46.62085 | 5466 ft | 227 kts | 139° |
| 2026-05-05 14:32 | -23.59841 | -46.60901 | 5641 ft | 235 kts | 129° |
| 2026-05-05 14:32 | -23.60539 | -46.59192 | 5932 ft | 266 kts | 102° |
| 2026-05-05 14:32 | -23.60883 | -46.57129 | 6495 ft | 283 kts | 99° |
| 2026-05-05 14:33 | -23.61172 | -46.54999 | 7469 ft | 284 kts | 99° |
| 2026-05-05 14:33 | -23.61454 | -46.52859 | 8388 ft | 287 kts | 99° |
| 2026-05-05 14:33 | -23.61739 | -46.50694 | 9369 ft | 290 kts | 99° |
| 2026-05-05 14:33 | -23.62030 | -46.48511 | 10321 ft | 292 kts | 100° |
| 2026-05-05 14:34 | -23.62329 | -46.46285 | 11068 ft | 301 kts | 99° |
| 2026-05-05 14:34 | -23.62637 | -46.44006 | 11856 ft | 306 kts | 99° |
| 2026-05-05 14:34 | -23.62952 | -46.41694 | 12679 ft | 310 kts | 99° |
| 2026-05-05 14:34 | -23.63272 | -46.39357 | 13530 ft | 314 kts | 99° |
| 2026-05-05 14:35 | -23.63596 | -46.36989 | 14340 ft | 318 kts | 99° |
| 2026-05-05 14:35 | -23.63920 | -46.34620 | 15068 ft | 322 kts | 99° |
| 2026-05-05 14:35 | -23.64252 | -46.32192 | 15821 ft | 326 kts | 99° |
| 2026-05-05 14:35 | -23.64588 | -46.29728 | 16567 ft | 330 kts | 99° |
| 2026-05-05 14:36 | -23.64934 | -46.27202 | 17306 ft | 335 kts | 99° |
| 2026-05-05 14:36 | -23.65275 | -46.24709 | 18019 ft | 339 kts | 100° |
| 2026-05-05 14:36 | -23.65624 | -46.22147 | 18707 ft | 344 kts | 100° |
| 2026-05-05 14:36 | -23.65977 | -46.19557 | 19340 ft | 347 kts | 100° |
| 2026-05-05 14:37 | -23.66332 | -46.16944 | 19999 ft | 350 kts | 100° |
| 2026-05-05 14:37 | -23.66683 | -46.14306 | 20686 ft | 353 kts | 98° |
| 2026-05-05 14:37 | -23.66752 | -46.11608 | 21316 ft | 359 kts | 87° |
| 2026-05-05 14:37 | -23.66421 | -46.08849 | 21981 ft | 364 kts | 83° |
| 2026-05-05 14:38 | -23.66015 | -46.06110 | 22569 ft | 368 kts | 83° |
| 2026-05-05 14:38 | -23.65589 | -46.03345 | 23222 ft | 371 kts | 83° |
| 2026-05-05 14:38 | -23.65160 | -46.00550 | 23806 ft | 376 kts | 83° |
| 2026-05-05 14:38 | -23.64734 | -45.97721 | 24279 ft | 381 kts | 83° |
| 2026-05-05 14:39 | -23.64310 | -45.94855 | 24790 ft | 384 kts | 83° |
| 2026-05-05 14:39 | -23.63892 | -45.92004 | 25276 ft | 388 kts | 84° |
| 2026-05-05 14:39 | -23.63462 | -45.89046 | 25765 ft | 392 kts | 84° |
| 2026-05-05 14:39 | -23.63038 | -45.86130 | 26236 ft | 396 kts | 84° |
| 2026-05-05 14:40 | -23.62600 | -45.83109 | 26739 ft | 400 kts | 83° |
| 2026-05-05 14:40 | -23.62163 | -45.80103 | 27177 ft | 404 kts | 83° |
| 2026-05-05 14:40 | -23.61719 | -45.77044 | 27205 ft | 415 kts | 83° |
| 2026-05-05 14:40 | -23.61261 | -45.73887 | 27231 ft | 427 kts | 83° |
| 2026-05-05 14:41 | -23.60795 | -45.70687 | 27235 ft | 438 kts | 83° |
| 2026-05-05 14:41 | -23.60306 | -45.67342 | 27215 ft | 442 kts | 83° |
| 2026-05-05 14:41 | -23.59827 | -45.64086 | 27216 ft | 439 kts | 83° |
| 2026-05-05 14:41 | -23.59345 | -45.60803 | 27212 ft | 438 kts | 83° |
| 2026-05-05 14:42 | -23.58863 | -45.57524 | 27206 ft | 437 kts | 83° |
| 2026-05-05 14:42 | -23.58382 | -45.54254 | 27209 ft | 436 kts | 83° |
| 2026-05-05 14:42 | -23.57904 | -45.51001 | 27204 ft | 434 kts | 83° |
| 2026-05-05 14:42 | -23.57425 | -45.47754 | 27206 ft | 433 kts | 83° |
| 2026-05-05 14:43 | -23.56875 | -45.44534 | 27210 ft | 433 kts | 80° |
| 2026-05-05 14:43 | -23.56218 | -45.41332 | 27215 ft | 432 kts | 79° |
| 2026-05-05 14:43 | -23.55517 | -45.38123 | 27231 ft | 440 kts | 78° |
| 2026-05-05 14:43 | -23.54793 | -45.34842 | 27228 ft | 451 kts | 78° |
| 2026-05-05 14:44 | -23.54058 | -45.31486 | 27209 ft | 458 kts | 78° |
| 2026-05-05 14:44 | -23.53325 | -45.28098 | 27216 ft | 461 kts | 78° |
| 2026-05-05 14:44 | -23.52598 | -45.24704 | 27206 ft | 460 kts | 78° |
| 2026-05-05 14:44 | -23.51874 | -45.21311 | 27210 ft | 459 kts | 79° |
| 2026-05-05 14:45 | -23.51152 | -45.17918 | 27202 ft | 459 kts | 79° |
| 2026-05-05 14:45 | -23.50432 | -45.14536 | 27192 ft | 459 kts | 78° |
| 2026-05-05 14:45 | -23.49712 | -45.11155 | 27202 ft | 458 kts | 78° |
| 2026-05-05 14:45 | -23.48991 | -45.07778 | 27199 ft | 457 kts | 79° |
| 2026-05-05 14:46 | -23.48271 | -45.04409 | 27196 ft | 457 kts | 78° |
| 2026-05-05 14:46 | -23.47552 | -45.01046 | 27197 ft | 456 kts | 78° |
| 2026-05-05 14:46 | -23.46833 | -44.97687 | 26915 ft | 454 kts | 78° |
| 2026-05-05 14:46 | -23.46119 | -44.94368 | 26488 ft | 447 kts | 78° |
| 2026-05-05 14:47 | -23.45400 | -44.91088 | 25976 ft | 442 kts | 78° |
| 2026-05-05 14:47 | -23.44680 | -44.87852 | 25470 ft | 438 kts | 78° |
| 2026-05-05 14:47 | -23.43963 | -44.84642 | 24958 ft | 434 kts | 78° |
| 2026-05-05 14:47 | -23.43253 | -44.81463 | 24432 ft | 431 kts | 78° |
| 2026-05-05 14:48 | -23.42548 | -44.78305 | 23901 ft | 428 kts | 79° |
| 2026-05-05 14:48 | -23.41848 | -44.75163 | 23318 ft | 425 kts | 79° |
| 2026-05-05 14:48 | -23.41155 | -44.72052 | 22769 ft | 421 kts | 78° |
| 2026-05-05 14:48 | -23.40467 | -44.68968 | 22230 ft | 417 kts | 78° |
| 2026-05-05 14:49 | -23.39787 | -44.65919 | 21717 ft | 413 kts | 78° |
| 2026-05-05 14:49 | -23.39112 | -44.62900 | 21218 ft | 409 kts | 78° |
| 2026-05-05 14:49 | -23.38443 | -44.59903 | 20719 ft | 405 kts | 78° |
| 2026-05-05 14:49 | -23.37778 | -44.56930 | 20219 ft | 402 kts | 78° |
| 2026-05-05 14:50 | -23.37118 | -44.53983 | 19724 ft | 400 kts | 77° |
| 2026-05-05 14:50 | -23.36461 | -44.51053 | 19204 ft | 398 kts | 77° |
| 2026-05-05 14:50 | -23.35807 | -44.48134 | 18704 ft | 396 kts | 77° |
| 2026-05-05 14:50 | -23.35155 | -44.45233 | 18163 ft | 394 kts | 77° |
| 2026-05-05 14:51 | -23.34498 | -44.42352 | 17638 ft | 391 kts | 75° |
| 2026-05-05 14:51 | -23.33577 | -44.39580 | 17125 ft | 388 kts | 67° |
| 2026-05-05 14:51 | -23.32438 | -44.36936 | 16647 ft | 385 kts | 64° |
| 2026-05-05 14:51 | -23.31247 | -44.34339 | 16165 ft | 381 kts | 64° |
| 2026-05-05 14:52 | -23.30070 | -44.31767 | 15675 ft | 378 kts | 64° |
| 2026-05-05 14:52 | -23.28921 | -44.29204 | 15213 ft | 376 kts | 65° |
| 2026-05-05 14:52 | -23.27798 | -44.26653 | 14738 ft | 373 kts | 65° |
| 2026-05-05 14:52 | -23.26693 | -44.24109 | 14267 ft | 371 kts | 65° |
| 2026-05-05 14:53 | -23.25601 | -44.21581 | 13755 ft | 368 kts | 66° |
| 2026-05-05 14:53 | -23.24520 | -44.19069 | 13248 ft | 366 kts | 65° |
| 2026-05-05 14:53 | -23.23445 | -44.16574 | 12763 ft | 363 kts | 66° |
| 2026-05-05 14:53 | -23.22381 | -44.14104 | 12285 ft | 359 kts | 66° |
| 2026-05-05 14:54 | -23.21324 | -44.11651 | 11828 ft | 357 kts | 66° |
| 2026-05-05 14:54 | -23.20273 | -44.09218 | 11365 ft | 354 kts | 66° |
| 2026-05-05 14:54 | -23.19221 | -44.06826 | 11102 ft | 346 kts | 65° |
| 2026-05-05 14:54 | -23.18158 | -44.04517 | 10900 ft | 337 kts | 64° |
| 2026-05-05 14:55 | -23.17118 | -44.02277 | 10714 ft | 328 kts | 65° |
| 2026-05-05 14:55 | -23.16106 | -44.00089 | 10534 ft | 320 kts | 65° |
| 2026-05-05 14:55 | -23.15144 | -43.97946 | 10360 ft | 312 kts | 66° |
| 2026-05-05 14:55 | -23.14239 | -43.95836 | 10207 ft | 305 kts | 67° |
| 2026-05-05 14:56 | -23.13368 | -43.93782 | 10163 ft | 293 kts | 67° |
| 2026-05-05 14:56 | -23.12519 | -43.91781 | 9900 ft | 290 kts | 67° |
| 2026-05-05 14:56 | -23.11684 | -43.89815 | 9740 ft | 284 kts | 67° |
| 2026-05-05 14:56 | -23.10860 | -43.87882 | 9575 ft | 280 kts | 67° |
| 2026-05-05 14:57 | -23.10051 | -43.85985 | 9432 ft | 280 kts | 67° |
| 2026-05-05 14:57 | -23.09230 | -43.84064 | 9281 ft | 281 kts | 67° |
| 2026-05-05 14:57 | -23.08407 | -43.82141 | 9131 ft | 281 kts | 67° |
| 2026-05-05 14:57 | -23.07581 | -43.80211 | 8976 ft | 282 kts | 67° |
| 2026-05-05 14:58 | -23.06754 | -43.78282 | 8835 ft | 282 kts | 67° |
| 2026-05-05 14:58 | -23.05925 | -43.76346 | 8688 ft | 283 kts | 67° |
| 2026-05-05 14:58 | -23.05093 | -43.74408 | 8527 ft | 284 kts | 67° |
| 2026-05-05 14:58 | -23.04259 | -43.72465 | 8379 ft | 284 kts | 67° |
| 2026-05-05 14:59 | -23.03425 | -43.70524 | 8231 ft | 284 kts | 66° |
| 2026-05-05 14:59 | -23.02582 | -43.68576 | 7982 ft | 286 kts | 66° |
| 2026-05-05 14:59 | -23.01732 | -43.66632 | 7726 ft | 284 kts | 66° |
| 2026-05-05 14:59 | -23.00889 | -43.64709 | 7476 ft | 281 kts | 66° |
| 2026-05-05 15:00 | -23.00053 | -43.62800 | 7232 ft | 279 kts | 66° |
| 2026-05-05 15:00 | -22.99501 | -43.61544 | 7105 ft | 277 kts | 66° |
| 2026-05-05 15:00 | -22.98388 | -43.59013 | 6730 ft | 277 kts | 66° |
| 2026-05-05 15:00 | -22.97565 | -43.57136 | 6536 ft | 273 kts | 66° |
| 2026-05-05 15:01 | -22.96754 | -43.55293 | 6373 ft | 269 kts | 66° |
| 2026-05-05 15:01 | -22.95946 | -43.53462 | 6213 ft | 268 kts | 66° |
| 2026-05-05 15:01 | -22.95144 | -43.51642 | 6062 ft | 267 kts | 66° |
| 2026-05-05 15:01 | -22.94348 | -43.49800 | 5803 ft | 272 kts | 67° |
| 2026-05-05 15:02 | -22.93555 | -43.47922 | 5517 ft | 274 kts | 66° |
| 2026-05-05 15:02 | -22.92760 | -43.46041 | 5204 ft | 274 kts | 66° |
| 2026-05-05 15:02 | -22.91969 | -43.44161 | 4902 ft | 274 kts | 66° |
| 2026-05-05 15:02 | -22.91174 | -43.42285 | 4648 ft | 273 kts | 66° |
| 2026-05-05 15:03 | -22.90383 | -43.40424 | 4390 ft | 270 kts | 65° |
| 2026-05-05 15:03 | -22.89604 | -43.38587 | 4149 ft | 266 kts | 65° |
| 2026-05-05 15:03 | -22.88848 | -43.36795 | 3925 ft | 264 kts | 65° |
| 2026-05-05 15:03 | -22.88259 | -43.34926 | 3680 ft | 263 kts | 85° |
| 2026-05-05 15:04 | -22.88311 | -43.32970 | 3481 ft | 256 kts | 93° |
| 2026-05-05 15:04 | -22.88397 | -43.31068 | 3238 ft | 249 kts | 91° |
| 2026-05-05 15:04 | -22.88467 | -43.29219 | 2979 ft | 242 kts | 91° |
| 2026-05-05 15:04 | -22.88530 | -43.27427 | 2763 ft | 234 kts | 91° |
| 2026-05-05 15:05 | -22.89356 | -43.24132 | 2283 ft | 221 kts | 112° |
| 2026-05-05 15:05 | -22.89932 | -43.22639 | 2019 ft | 208 kts | 112° |
| 2026-05-05 15:05 | -22.90491 | -43.21240 | 1749 ft | 196 kts | 118° |
| 2026-05-05 15:06 | -22.91262 | -43.20087 | 1510 ft | 184 kts | 135° |
| 2026-05-05 15:06 | -22.92280 | -43.19339 | 1302 ft | 174 kts | 160° |
| 2026-05-05 15:06 | -22.93411 | -43.19246 | 1116 ft | 155 kts | 193° |
| 2026-05-05 15:06 | -22.94405 | -43.19382 | 1058 ft | 137 kts | 168° |
| 2026-05-05 15:07 | -22.95183 | -43.18843 | 835 ft | 138 kts | 122° |
| 2026-05-05 15:07 | -22.95363 | -43.17857 | 695 ft | 134 kts | 76° |
| 2026-05-05 15:07 | -22.94919 | -43.17018 | 675 ft | 126 kts | 47° |
| 2026-05-05 15:07 | -22.94261 | -43.16401 | 737 ft | 125 kts | 32° |
| 2026-05-05 15:08 | -22.93415 | -43.16132 | 536 ft | 128 kts | 3° |
| 2026-05-05 15:08 | -22.92511 | -43.16183 | 271 ft | 131 kts | 356° |
| 2026-05-05 15:08 | -22.91606 | -43.16247 | 42 ft | 128 kts | 355° |
| 2026-05-05 15:08 | -22.90894 | -43.16292 | 22 ft | 58 kts | 355° |
| 2026-05-05 15:09 | -22.90785 | -43.16301 | 27 ft | 0 kts | 1° |
| 2026-05-05 15:09 | -22.90719 | -43.16306 | 24 ft | 17 kts | 353° |
| 2026-05-05 15:09 | -22.90575 | -43.16317 | 25 ft | 24 kts | 358° |
| 2026-05-05 15:09 | -22.90493 | -43.16411 | 23 ft | 17 kts | 274° |
| 2026-05-05 15:10 | -22.90507 | -43.16537 | 24 ft | 14 kts | 233° |
| 2026-05-05 15:10 | -22.90602 | -43.16552 | 21 ft | 15 kts | 178° |
| 2026-05-05 15:10 | -22.90721 | -43.16544 | 21 ft | 19 kts | 176° |
| 2026-05-05 15:10 | -22.90870 | -43.16548 | 21 ft | 21 kts | 180° |
| 2026-05-05 15:11 | -22.91015 | -43.16539 | 23 ft | 21 kts | 176° |
| 2026-05-05 15:11 | -22.91049 | -43.16577 | 21 ft | 7 kts | 263° |
| 2026-05-05 15:11 | -22.91050 | -43.16603 | 24 ft | 0 kts | 266° |